Time;durP1;ratioP1;P1;durP2;ratioP2;P2;SDS_P1;SDS_P2;PMS_P1;PMS_P2;Temp;Humidity;BMP_temperature;BMP_pressure;BME280_temperature;BME280_humidity;BME280_pressure;Samples;Min_cycle;Max_cycle;Signal;HPM_P1;HPM_P2
2023/03/17 00:00:41;;;;;;;4.53;2.50;;;9.90;99.90;;;;;;4187200;28;20032;-68
2023/03/17 00:02:44;;;;;;;4.80;2.05;;;9.90;99.90;;;;;;4193706;28;20029;-69
2023/03/17 00:04:45;;;;;;;3.20;1.85;;;9.90;99.90;;;;;;4198744;28;20033;-69
2023/03/17 00:06:46;;;;;;;4.53;2.28;;;9.90;99.90;;;;;;4197439;28;20067;-69
2023/03/17 00:08:47;;;;;;;5.70;2.15;;;9.90;99.90;;;;;;4196654;28;20116;-69
2023/03/17 00:10:48;;;;;;;4.60;2.15;;;9.90;99.90;;;;;;4196880;28;25039;-69
2023/03/17 00:12:52;;;;;;;3.75;1.65;;;9.90;99.90;;;;;;4196050;28;20506;-69
2023/03/17 00:14:52;;;;;;;3.28;1.67;;;9.90;99.90;;;;;;4196700;28;20031;-69
2023/03/17 00:16:53;;;;;;;6.22;2.67;;;9.90;99.90;;;;;;4195102;28;20037;-69
2023/03/17 00:18:54;;;;;;;3.45;1.90;;;9.90;99.90;;;;;;4192463;28;20047;-69
2023/03/17 00:20:55;;;;;;;3.88;1.90;;;9.90;99.90;;;;;;4195446;28;20117;-69
2023/03/17 00:23:02;;;;;;;3.80;2.20;;;9.90;99.90;;;;;;4190825;28;20037;-69
2023/03/17 00:25:18;;;;;;;4.75;1.98;;;9.90;99.90;;;;;;4193742;28;20033;-70
2023/03/17 00:27:19;;;;;;;7.20;2.50;;;9.90;99.90;;;;;;4191541;28;20369;-70
2023/03/17 00:29:20;;;;;;;4.70;2.25;;;9.90;99.90;;;;;;4193018;28;20078;-68
2023/03/17 00:31:23;;;;;;;2.63;1.88;;;9.90;99.90;;;;;;4192886;28;20032;-69
2023/03/17 00:33:33;;;;;;;5.80;2.40;;;9.90;99.90;;;;;;4194436;28;20028;-69
2023/03/17 00:35:34;;;;;;;5.85;2.17;;;9.90;99.90;;;;;;4194080;28;20356;-68
2023/03/17 00:37:34;;;;;;;4.40;2.20;;;9.90;99.90;;;;;;4194902;28;20039;-68
2023/03/17 00:39:35;;;;;;;5.35;1.92;;;9.80;99.90;;;;;;4191279;28;20020;-68
2023/03/17 00:41:36;;;;;;;4.80;2.20;;;9.80;99.90;;;;;;4189541;28;20029;-69
2023/03/17 00:43:37;;;;;;;4.70;2.30;;;9.80;99.90;;;;;;4194850;28;20064;-69
2023/03/17 00:45:40;;;;;;;5.95;2.45;;;9.80;99.90;;;;;;4192717;28;20055;-69
2023/03/17 00:47:41;;;;;;;4.47;2.05;;;9.80;99.90;;;;;;4186959;28;20028;-69
2023/03/17 00:49:42;;;;;;;4.97;2.00;;;9.80;99.90;;;;;;4195570;28;20147;-69
2023/03/17 00:51:44;;;;;;;6.47;2.40;;;9.80;99.90;;;;;;4187497;28;20444;-69
2023/03/17 00:53:45;;;;;;;4.70;2.13;;;9.80;99.90;;;;;;4194853;28;20513;-69
2023/03/17 00:55:47;;;;;;;3.83;2.20;;;9.80;99.90;;;;;;4192322;28;20052;-69
2023/03/17 00:57:48;;;;;;;2.87;1.87;;;9.80;99.90;;;;;;4194393;28;20028;-69
2023/03/17 00:59:50;;;;;;;3.88;2.20;;;9.80;99.90;;;;;;4195892;28;20334;-69
2023/03/17 01:01:51;;;;;;;6.10;2.45;;;9.70;99.90;;;;;;4194118;28;20090;-69
2023/03/17 01:03:52;;;;;;;3.47;2.20;;;9.70;99.90;;;;;;4195039;28;20071;-69
2023/03/17 01:05:55;;;;;;;4.93;2.20;;;9.70;99.90;;;;;;4186901;28;20199;-69
2023/03/17 01:07:57;;;;;;;4.38;2.08;;;9.70;99.90;;;;;;4194595;28;20483;-68
2023/03/17 01:09:58;;;;;;;4.90;2.10;;;9.70;99.90;;;;;;4193388;28;20032;-69
2023/03/17 01:11:59;;;;;;;4.00;2.20;;;9.80;99.90;;;;;;4189625;28;20128;-69
2023/03/17 01:14:00;;;;;;;3.80;2.15;;;9.80;99.90;;;;;;4187203;28;20028;-69
2023/03/17 01:16:00;;;;;;;5.13;2.30;;;9.80;99.90;;;;;;4183289;28;20029;-68
2023/03/17 01:18:01;;;;;;;4.95;2.13;;;9.70;99.90;;;;;;4186775;28;20029;-68
2023/03/17 01:20:04;;;;;;;4.75;2.35;;;9.70;99.90;;;;;;4187974;28;20090;-68
2023/03/17 01:22:04;;;;;;;5.00;2.28;;;9.70;99.90;;;;;;4193934;28;20173;-68
2023/03/17 01:24:07;;;;;;;4.07;2.00;;;9.70;99.90;;;;;;4188025;28;20037;-69
2023/03/17 01:26:08;;;;;;;3.67;2.28;;;9.70;99.90;;;;;;4191300;28;20040;-69
2023/03/17 01:28:16;;;;;;;6.57;2.15;;;9.70;99.90;;;;;;4194451;28;20029;-68
2023/03/17 01:30:33;;;;;;;4.15;1.80;;;9.70;99.90;;;;;;4192052;28;20063;-69
2023/03/17 01:32:34;;;;;;;4.43;1.90;;;9.70;99.90;;;;;;4192926;28;20138;-68
2023/03/17 01:34:35;;;;;;;4.78;2.00;;;9.70;99.90;;;;;;4193329;28;20032;-68
2023/03/17 01:36:36;;;;;;;6.30;2.38;;;9.60;99.90;;;;;;4189244;28;20044;-69
2023/03/17 01:38:36;;;;;;;4.10;1.90;;;9.60;99.90;;;;;;4192261;28;20036;-69
2023/03/17 01:40:45;;;;;;;5.22;2.20;;;9.60;99.90;;;;;;4187240;28;20103;-68
2023/03/17 01:43:00;;;;;;;2.90;1.70;;;9.60;99.90;;;;;;4189246;28;20182;-70
2023/03/17 01:45:06;;;;;;;5.13;2.35;;;9.60;99.90;;;;;;4192584;28;20028;-68
2023/03/17 01:47:07;;;;;;;3.22;2.08;;;9.60;99.90;;;;;;4188515;28;20432;-69
2023/03/17 01:49:31;;;;;;;3.72;2.00;;;9.70;99.90;;;;;;4191266;28;20036;-69
2023/03/17 01:51:53;;;;;;;3.47;2.00;;;9.60;99.90;;;;;;4193306;28;20025;-69
2023/03/17 01:53:54;;;;;;;5.97;2.38;;;9.60;99.90;;;;;;4191613;28;20444;-69
2023/03/17 01:55:56;;;;;;;5.38;2.10;;;9.70;99.90;;;;;;4191005;28;20029;-69
2023/03/17 01:57:57;;;;;;;3.37;1.77;;;9.70;99.90;;;;;;4190631;28;20087;-69
2023/03/17 02:00:08;;;;;;;2.95;2.03;;;9.70;99.90;;;;;;4190598;28;20037;-69
2023/03/17 02:02:13;;;;;;;3.05;1.70;;;9.70;99.90;;;;;;4190810;28;20028;-69
2023/03/17 02:04:15;;;;;;;4.88;2.15;;;9.70;99.90;;;;;;4189976;28;20031;-69
2023/03/17 02:06:16;;;;;;;3.80;1.90;;;9.70;99.90;;;;;;4190922;28;20403;-69
2023/03/17 02:08:17;;;;;;;5.97;2.20;;;9.70;99.90;;;;;;4192293;28;20518;-69
2023/03/17 02:10:21;;;;;;;2.45;1.90;;;9.70;99.90;;;;;;4192713;28;20025;-69
2023/03/17 02:12:26;;;;;;;3.53;2.30;;;9.70;99.90;;;;;;4190576;28;20102;-69
2023/03/17 02:14:28;;;;;;;2.65;1.80;;;9.70;99.90;;;;;;4194281;28;20356;-69
2023/03/17 02:16:29;;;;;;;2.70;1.77;;;9.70;99.90;;;;;;4192933;28;20032;-69
2023/03/17 02:18:30;;;;;;;4.13;2.13;;;9.70;99.90;;;;;;4190088;28;20044;-68
2023/03/17 02:20:31;;;;;;;2.97;1.77;;;9.70;99.90;;;;;;4187524;28;20040;-68
2023/03/17 02:22:32;;;;;;;6.25;2.00;;;9.70;99.90;;;;;;4193185;28;20033;-69
2023/03/17 02:24:43;;;;;;;3.50;1.67;;;9.70;99.90;;;;;;4190625;28;20028;-69
2023/03/17 02:26:45;;;;;;;3.80;2.10;;;9.70;99.90;;;;;;4188498;28;20568;-69
2023/03/17 02:28:47;;;;;;;;;;;9.70;99.90;;;;;;4189987;28;20048;-68
2023/03/17 02:30:47;;;;;;;4.60;1.95;;;9.70;99.90;;;;;;4192924;28;19913;-69
2023/03/17 02:32:48;;;;;;;4.28;1.85;;;9.60;99.90;;;;;;4193143;28;20115;-69
2023/03/17 02:34:49;;;;;;;4.13;2.15;;;9.60;99.90;;;;;;4185262;28;20036;-69
2023/03/17 02:36:49;;;;;;;4.45;2.00;;;9.60;99.90;;;;;;4191273;28;20040;-70
2023/03/17 02:38:50;;;;;;;3.22;1.77;;;9.60;99.90;;;;;;4193250;28;20044;-69
2023/03/17 02:40:51;;;;;;;3.30;1.77;;;9.50;99.90;;;;;;4192933;28;20040;-69
2023/03/17 02:42:53;;;;;;;7.45;2.20;;;9.60;99.90;;;;;;4193095;28;20051;-69
2023/03/17 02:44:53;;;;;;;4.53;2.42;;;9.60;99.90;;;;;;4185674;28;20210;-69
2023/03/17 02:46:54;;;;;;;4.25;1.92;;;9.50;99.90;;;;;;4191295;28;20043;-69
2023/03/17 02:48:55;;;;;;;2.72;1.73;;;9.50;99.90;;;;;;4192242;28;20103;-69
2023/03/17 02:50:56;;;;;;;3.47;1.80;;;9.60;99.90;;;;;;4186374;28;20051;-69
2023/03/17 02:52:57;;;;;;;3.55;1.80;;;9.60;99.90;;;;;;4193665;28;20056;-69
2023/03/17 02:54:57;;;;;;;6.63;2.10;;;9.50;99.90;;;;;;4193898;28;20387;-69
2023/03/17 02:56:58;;;;;;;6.25;2.20;;;9.50;99.90;;;;;;4192214;28;20067;-70
2023/03/17 02:58:59;;;;;;;3.72;1.83;;;9.50;99.90;;;;;;4192372;28;20408;-69
2023/03/17 03:01:01;;;;;;;4.22;2.08;;;9.50;99.90;;;;;;4186121;28;20078;-69
2023/03/17 03:03:01;;;;;;;3.15;1.65;;;9.50;99.90;;;;;;4192274;28;20039;-68
2023/03/17 03:05:03;;;;;;;4.85;2.10;;;9.40;99.90;;;;;;4192372;28;20124;-68
2023/03/17 03:07:03;;;;;;;3.15;2.00;;;9.40;99.90;;;;;;4190719;28;20028;-70
2023/03/17 03:09:04;;;;;;;5.03;1.73;;;9.40;99.90;;;;;;4178308;28;20089;-68
2023/03/17 03:11:05;;;;;;;4.50;1.98;;;9.40;99.90;;;;;;4189314;28;20032;-68
2023/03/17 03:13:06;;;;;;;3.15;1.75;;;9.40;99.90;;;;;;4190853;28;20028;-68
2023/03/17 03:15:08;;;;;;;3.85;2.20;;;9.40;99.90;;;;;;4188077;28;20052;-69
2023/03/17 03:17:09;;;;;;;2.65;1.77;;;9.40;99.90;;;;;;4192020;28;21435;-68
2023/03/17 03:19:10;;;;;;;4.18;1.90;;;9.40;99.90;;;;;;4192448;28;20249;-69
2023/03/17 03:21:11;;;;;;;5.95;1.80;;;9.30;99.90;;;;;;4187646;28;20047;-69
2023/03/17 03:23:12;;;;;;;5.85;2.40;;;9.30;99.90;;;;;;4193547;28;20086;-68
2023/03/17 03:25:12;;;;;;;2.67;1.88;;;9.30;99.90;;;;;;4192574;28;20035;-70
2023/03/17 03:27:13;;;;;;;2.53;1.80;;;9.40;99.90;;;;;;4189378;28;20445;-69
2023/03/17 03:29:13;;;;;;;2.15;1.45;;;9.30;99.90;;;;;;4184918;28;20405;-69
2023/03/17 03:31:14;;;;;;;3.92;2.22;;;9.30;99.90;;;;;;4185168;28;20043;-69
2023/03/17 03:33:16;;;;;;;4.85;1.88;;;9.30;99.90;;;;;;4192148;28;20446;-69
2023/03/17 03:35:16;;;;;;;3.70;2.20;;;9.30;99.90;;;;;;4192515;28;20033;-69
2023/03/17 03:37:17;;;;;;;3.63;1.90;;;9.30;99.90;;;;;;4191343;28;20086;-69
2023/03/17 03:39:17;;;;;;;5.65;2.67;;;9.30;99.90;;;;;;4193357;28;20032;-69
2023/03/17 03:41:18;;;;;;;3.42;2.00;;;9.30;99.90;;;;;;4190569;28;20029;-69
2023/03/17 03:43:19;;;;;;;2.65;1.95;;;9.30;99.90;;;;;;4191561;28;20045;-69
2023/03/17 03:45:20;;;;;;;4.43;1.90;;;9.30;99.90;;;;;;4193015;28;20518;-69
2023/03/17 03:47:20;;;;;;;4.43;2.17;;;9.30;99.90;;;;;;4192539;28;20036;-69
2023/03/17 03:49:21;;;;;;;4.90;2.00;;;9.20;99.90;;;;;;4190401;28;20063;-69
2023/03/17 03:51:22;;;;;;;3.53;2.05;;;9.20;99.90;;;;;;4192021;28;20064;-69
2023/03/17 03:53:23;;;;;;;4.50;2.22;;;9.30;99.90;;;;;;4196096;28;20029;-69
2023/03/17 03:55:24;;;;;;;3.67;2.03;;;9.30;99.90;;;;;;4194973;28;20039;-69
2023/03/17 03:57:24;;;;;;;4.97;2.08;;;9.30;99.90;;;;;;4195278;28;20165;-68
2023/03/17 03:59:25;;;;;;;4.57;2.03;;;9.30;99.90;;;;;;4180723;28;20033;-69
2023/03/17 04:01:26;;;;;;;2.47;1.77;;;9.30;99.90;;;;;;4189730;28;20435;-69
2023/03/17 04:03:26;;;;;;;4.68;2.00;;;9.20;99.90;;;;;;4195662;28;20039;-69
2023/03/17 04:05:27;;;;;;;2.55;1.77;;;9.30;99.90;;;;;;4193244;28;20064;-69
2023/03/17 04:07:28;;;;;;;4.78;1.90;;;9.20;99.90;;;;;;4190063;28;20060;-69
2023/03/17 04:09:28;;;;;;;4.05;1.80;;;9.30;99.90;;;;;;4196151;28;20031;-69
2023/03/17 04:11:29;;;;;;;7.55;2.10;;;9.30;99.90;;;;;;4195184;28;20036;-69
2023/03/17 04:13:30;;;;;;;4.90;2.38;;;9.30;99.90;;;;;;4191049;28;20072;-69
2023/03/17 04:15:30;;;;;;;3.28;1.90;;;9.20;99.90;;;;;;4192261;28;20045;-69
2023/03/17 04:17:31;;;;;;;3.85;2.05;;;9.30;99.90;;;;;;4194288;28;20391;-69
2023/03/17 04:19:32;;;;;;;3.50;2.00;;;9.20;99.90;;;;;;4195119;28;20480;-69
2023/03/17 04:21:32;;;;;;;3.05;1.77;;;9.20;99.90;;;;;;4195032;28;20051;-69
2023/03/17 04:23:33;;;;;;;3.33;2.00;;;9.20;99.90;;;;;;4196546;28;20036;-68
2023/03/17 04:25:34;;;;;;;4.45;1.58;;;9.20;99.90;;;;;;4193360;28;20036;-68
2023/03/17 04:27:35;;;;;;;6.15;2.00;;;9.20;99.90;;;;;;4187187;28;20028;-69
2023/03/17 04:29:35;;;;;;;5.55;2.08;;;9.20;99.90;;;;;;4192992;28;20398;-68
2023/03/17 04:31:38;;;;;;;6.50;2.45;;;9.20;99.90;;;;;;4186047;28;20499;-69
2023/03/17 04:33:39;;;;;;;3.17;1.98;;;9.20;99.90;;;;;;4193532;28;20027;-69
2023/03/17 04:35:40;;;;;;;3.38;2.17;;;9.20;99.90;;;;;;4194216;28;20021;-69
2023/03/17 04:37:41;;;;;;;2.97;1.95;;;9.20;99.90;;;;;;4191299;28;20502;-69
2023/03/17 04:39:41;;;;;;;4.93;2.22;;;9.20;99.90;;;;;;4195022;28;20392;-69
2023/03/17 04:41:42;;;;;;;3.30;1.90;;;9.20;99.90;;;;;;4191632;28;20029;-69
2023/03/17 04:43:43;;;;;;;7.97;2.15;;;9.20;99.90;;;;;;4195295;28;20086;-69
2023/03/17 04:45:43;;;;;;;3.17;2.15;;;9.20;99.90;;;;;;4192366;28;20556;-69
2023/03/17 04:47:47;;;;;;;4.05;2.20;;;9.20;99.90;;;;;;4195090;28;20036;-69
2023/03/17 04:49:48;;;;;;;4.57;1.95;;;9.20;99.90;;;;;;4195616;28;20029;-68
2023/03/17 04:51:48;;;;;;;6.32;2.03;;;9.20;99.90;;;;;;4191152;28;20090;-69
2023/03/17 04:53:49;;;;;;;4.03;2.00;;;9.20;99.90;;;;;;4192615;28;20029;-69
2023/03/17 04:55:50;;;;;;;4.18;2.20;;;9.20;99.90;;;;;;4192034;28;20609;-69
2023/03/17 04:57:51;;;;;;;4.45;2.13;;;9.30;99.90;;;;;;4193189;28;20167;-69
2023/03/17 04:59:51;;;;;;;4.22;1.88;;;9.30;99.90;;;;;;4195393;28;20024;-69
2023/03/17 05:01:52;;;;;;;5.25;2.08;;;9.30;99.90;;;;;;4193057;28;20040;-69
2023/03/17 05:03:53;;;;;;;3.90;2.20;;;9.30;99.90;;;;;;4195126;28;20428;-69
2023/03/17 05:05:54;;;;;;;3.10;2.05;;;9.30;99.90;;;;;;4190600;28;20048;-69
2023/03/17 05:07:54;;;;;;;6.00;1.77;;;9.30;99.90;;;;;;4194441;28;20036;-69
2023/03/17 05:09:55;;;;;;;3.10;1.80;;;9.30;99.90;;;;;;4194663;28;20042;-69
2023/03/17 05:11:56;;;;;;;2.90;1.67;;;9.30;99.90;;;;;;4193006;28;20051;-69
2023/03/17 05:13:57;;;;;;;3.28;1.75;;;9.30;99.90;;;;;;4195050;28;20040;-69
2023/03/17 05:15:59;;;;;;;5.20;2.22;;;9.30;99.90;;;;;;4193177;28;20450;-69
2023/03/17 05:18:00;;;;;;;6.05;2.35;;;9.30;99.90;;;;;;4194663;28;20432;-69
2023/03/17 05:20:00;;;;;;;4.93;2.45;;;9.30;99.90;;;;;;4193852;28;20063;-69
2023/03/17 05:22:01;;;;;;;6.05;1.95;;;9.30;99.90;;;;;;4193388;28;20041;-69
2023/03/17 05:24:02;;;;;;;3.90;2.00;;;9.30;99.90;;;;;;4191577;28;20507;-69
2023/03/17 05:26:03;;;;;;;2.67;1.90;;;9.30;99.90;;;;;;4192046;28;21425;-69
2023/03/17 05:28:04;;;;;;;2.95;2.10;;;9.30;99.90;;;;;;4190580;28;20032;-70
2023/03/17 05:30:05;;;;;;;3.10;1.95;;;9.30;99.90;;;;;;4192342;28;20042;-68
2023/03/17 05:32:06;;;;;;;4.60;2.50;;;9.30;99.90;;;;;;4193621;28;20124;-69
2023/03/17 05:34:06;;;;;;;6.78;2.58;;;9.20;99.90;;;;;;4193684;28;20036;-67
2023/03/17 05:36:07;;;;;;;5.45;2.60;;;9.20;99.90;;;;;;4191472;28;20043;-68
2023/03/17 05:38:11;;;;;;;3.92;2.17;;;9.20;99.90;;;;;;4194234;28;20035;-69
2023/03/17 05:40:13;;;;;;;5.28;2.75;;;9.20;99.90;;;;;;4193485;28;20099;-69
2023/03/17 05:42:14;;;;;;;3.55;2.25;;;9.20;99.90;;;;;;4192664;28;20200;-69
2023/03/17 05:44:15;;;;;;;4.45;2.42;;;9.10;99.90;;;;;;4191945;28;20051;-69
2023/03/17 05:46:15;;;;;;;5.57;2.90;;;9.20;99.90;;;;;;4192070;28;20056;-69
2023/03/17 05:48:16;;;;;;;4.88;1.95;;;9.20;99.90;;;;;;4194252;28;20082;-69
2023/03/17 05:50:17;;;;;;;5.35;2.40;;;9.20;99.90;;;;;;4190885;28;20033;-69
2023/03/17 05:52:18;;;;;;;7.28;2.75;;;9.10;99.90;;;;;;4193862;28;20040;-69
2023/03/17 05:54:18;;;;;;;3.38;2.22;;;9.10;99.90;;;;;;4193866;28;20047;-69
2023/03/17 05:56:19;;;;;;;4.18;2.10;;;9.20;99.90;;;;;;4190144;28;20047;-69
2023/03/17 05:58:20;;;;;;;5.00;2.38;;;9.10;99.90;;;;;;4192644;28;20044;-69
2023/03/17 06:00:22;;;;;;;4.07;2.10;;;9.10;99.90;;;;;;4193251;28;20060;-69
2023/03/17 06:02:22;;;;;;;3.83;2.10;;;9.10;99.90;;;;;;4193302;28;20144;-69
2023/03/17 06:04:23;;;;;;;2.47;1.70;;;9.10;99.90;;;;;;4194138;28;20045;-69
2023/03/17 06:06:24;;;;;;;4.53;2.20;;;9.20;99.90;;;;;;4174760;28;20088;-69
2023/03/17 06:08:25;;;;;;;3.88;2.08;;;9.20;99.90;;;;;;4177098;28;20040;-69
2023/03/17 06:10:26;;;;;;;4.82;2.60;;;9.20;99.90;;;;;;4173211;28;20526;-69
2023/03/17 06:12:27;;;;;;;3.92;2.17;;;9.20;99.90;;;;;;4161481;28;20125;-69
2023/03/17 06:14:27;;;;;;;4.72;2.35;;;9.20;99.90;;;;;;4171077;28;20033;-69
2023/03/17 06:16:31;;;;;;;5.28;2.55;;;9.20;99.90;;;;;;4165777;28;20044;-69
2023/03/17 06:18:32;;;;;;;4.30;2.38;;;9.20;99.90;;;;;;4175186;28;20043;-69
2023/03/17 06:20:33;;;;;;;4.28;2.78;;;9.20;99.90;;;;;;4176396;28;20052;-69
2023/03/17 06:22:35;;;;;;;3.80;2.13;;;9.20;99.90;;;;;;4174189;28;20079;-69
2023/03/17 06:24:36;;;;;;;4.35;2.40;;;9.20;99.90;;;;;;4176645;28;20036;-68
2023/03/17 06:26:37;;;;;;;3.75;2.28;;;9.20;99.90;;;;;;4163883;28;20033;-67
2023/03/17 06:28:38;;;;;;;3.88;2.22;;;9.20;99.90;;;;;;4167321;28;20082;-68
2023/03/17 06:30:38;;;;;;;4.30;2.33;;;9.30;99.90;;;;;;4173533;28;20025;-68
2023/03/17 06:32:39;;;;;;;5.22;2.42;;;9.30;99.90;;;;;;4168198;28;20507;-69
2023/03/17 06:34:41;;;;;;;5.28;2.53;;;9.30;99.90;;;;;;4163923;28;20507;-69
2023/03/17 06:36:42;;;;;;;5.93;2.30;;;9.30;99.90;;;;;;4169774;28;20437;-69
2023/03/17 06:38:44;;;;;;;9.95;2.80;;;9.30;99.90;;;;;;4170815;28;20124;-69
2023/03/17 06:40:45;;;;;;;4.53;2.33;;;9.30;99.90;;;;;;4154606;28;20071;-69
2023/03/17 06:42:46;;;;;;;4.80;2.70;;;9.40;99.90;;;;;;4167154;28;20033;-69
2023/03/17 06:44:46;;;;;;;4.80;2.67;;;9.40;99.90;;;;;;4171279;28;20526;-69
2023/03/17 06:46:47;;;;;;;3.75;2.13;;;9.40;99.90;;;;;;4172066;28;20033;-69
2023/03/17 06:48:48;;;;;;;6.07;2.28;;;9.40;99.90;;;;;;4181504;28;20132;-71
2023/03/17 06:50:49;;;;;;;3.83;2.25;;;9.40;99.90;;;;;;4170000;28;20040;-70
2023/03/17 06:52:49;;;;;;;3.80;2.25;;;9.40;99.90;;;;;;4167486;28;20033;-70
2023/03/17 06:54:50;;;;;;;3.47;2.05;;;9.50;99.90;;;;;;4162236;28;20032;-70
2023/03/17 06:56:52;;;;;;;6.30;2.35;;;9.60;99.90;;;;;;4165573;28;20400;-70
2023/03/17 06:58:52;;;;;;;5.57;2.53;;;9.60;99.90;;;;;;4169654;28;20111;-70
2023/03/17 07:00:53;;;;;;;5.88;2.42;;;9.70;99.90;;;;;;4171012;28;20480;-70
2023/03/17 07:02:53;;;;;;;5.35;3.10;;;9.70;99.90;;;;;;4170756;28;20029;-70
2023/03/17 07:04:56;;;;;;;6.30;2.50;;;9.80;99.90;;;;;;4170642;28;20057;-70
2023/03/17 07:06:56;;;;;;;;;;;9.80;99.90;;;;;;4180360;28;20037;-70
2023/03/17 07:08:57;;;;;;;4.30;2.40;;;9.80;99.90;;;;;;4171642;28;20003;-70
2023/03/17 07:10:59;;;;;;;5.38;2.58;;;9.90;99.90;;;;;;4177757;28;20053;-70
2023/03/17 07:13:01;;;;;;;3.80;2.40;;;9.90;99.90;;;;;;4175131;28;20053;-70
2023/03/17 07:15:02;;;;;;;4.60;2.60;;;10.00;99.90;;;;;;4163502;28;20121;-70
2023/03/17 07:17:05;;;;;;;5.20;2.30;;;10.00;99.90;;;;;;4169677;28;20037;-70
2023/03/17 07:19:06;;;;;;;5.47;2.17;;;10.10;99.90;;;;;;4171154;28;20045;-70
2023/03/17 07:21:06;;;;;;;3.78;2.38;;;10.20;99.90;;;;;;4169197;28;20056;-71
2023/03/17 07:23:19;;;;;;;3.67;2.25;;;10.30;99.90;;;;;;4174953;28;20124;-70
2023/03/17 07:25:21;;;;;;;4.75;2.60;;;10.30;99.90;;;;;;4175018;28;20033;-71
2023/03/17 07:27:24;;;;;;;3.90;2.45;;;10.40;99.90;;;;;;4171954;28;20032;-70
2023/03/17 07:29:25;;;;;;;;;;;10.50;99.90;;;;;;4178588;28;20116;-71
2023/03/17 07:31:27;;;;;;;4.97;2.33;;;10.60;99.90;;;;;;4162076;28;20016;-70
2023/03/17 07:33:28;;;;;;;5.18;2.33;;;10.70;99.90;;;;;;4167304;28;20041;-71
2023/03/17 07:35:30;;;;;;;4.35;2.60;;;10.90;99.90;;;;;;4173415;28;20715;-71
2023/03/17 07:37:30;;;;;;;6.77;2.40;;;11.00;99.90;;;;;;4173442;28;20059;-71
2023/03/17 07:39:31;;;;;;;7.28;2.53;;;11.10;99.90;;;;;;4158663;28;20319;-71
2023/03/17 07:41:32;;;;;;;3.58;2.33;;;11.20;99.90;;;;;;4177239;28;20064;-71
2023/03/17 07:43:33;;;;;;;4.55;2.70;;;11.40;99.90;;;;;;4169533;28;20037;-70
2023/03/17 07:45:34;;;;;;;4.60;2.17;;;11.40;99.90;;;;;;4175685;28;20132;-71
2023/03/17 07:47:35;;;;;;;4.47;2.75;;;11.50;99.90;;;;;;4176465;28;20048;-71
2023/03/17 07:49:37;;;;;;;4.68;2.58;;;11.50;99.90;;;;;;4170469;28;20071;-77
2023/03/17 07:51:37;;;;;;;4.75;2.47;;;11.50;99.90;;;;;;4170339;28;20025;-77
2023/03/17 07:53:38;;;;;;;11.30;6.13;;;11.60;99.90;;;;;;4175555;28;20506;-72
2023/03/17 07:55:38;;;;;;;5.60;2.85;;;11.70;99.90;;;;;;4174958;28;20033;-69
2023/03/17 07:57:40;;;;;;;7.80;2.83;;;11.70;99.90;;;;;;4171727;28;20057;-70
2023/03/17 07:59:40;;;;;;;6.65;2.78;;;11.80;99.90;;;;;;4162841;28;20037;-71
2023/03/17 08:01:41;;;;;;;7.22;2.45;;;11.80;99.90;;;;;;4176884;28;20106;-71
2023/03/17 08:03:41;;;;;;;3.30;2.15;;;11.90;99.90;;;;;;4175988;28;20029;-71
2023/03/17 08:05:43;;;;;;;4.45;2.53;;;12.00;99.90;;;;;;4182749;28;20135;-71
2023/03/17 08:07:44;;;;;;;4.85;2.28;;;12.00;99.90;;;;;;4170141;28;20033;-71
2023/03/17 08:09:45;;;;;;;5.93;2.40;;;12.10;99.90;;;;;;4177158;28;20132;-72
2023/03/17 08:11:45;;;;;;;6.07;2.63;;;12.20;99.90;;;;;;4185168;28;20037;-71
2023/03/17 08:13:47;;;;;;;4.97;2.65;;;12.30;99.90;;;;;;4186634;28;20031;-71
2023/03/17 08:15:47;;;;;;;3.72;2.30;;;12.40;99.90;;;;;;4189394;28;20385;-71
2023/03/17 08:17:48;;;;;;;5.93;2.50;;;12.50;99.90;;;;;;4186762;28;20059;-72
2023/03/17 08:19:49;;;;;;;3.25;2.20;;;12.50;99.90;;;;;;4184322;28;20021;-71
2023/03/17 08:21:50;;;;;;;3.53;2.45;;;12.50;99.90;;;;;;4188449;28;20056;-72
2023/03/17 08:23:51;;;;;;;4.15;2.65;;;12.50;99.90;;;;;;4189217;28;20021;-72
2023/03/17 08:25:58;;;;;;;6.93;2.63;;;12.60;99.90;;;;;;4188898;28;20028;-72
2023/03/17 08:27:59;;;;;;;6.45;2.83;;;12.60;99.90;;;;;;4194357;28;20036;-72
2023/03/17 08:30:00;;;;;;;4.00;2.67;;;12.70;99.90;;;;;;4185087;28;20443;-72
2023/03/17 08:32:00;;;;;;;5.13;2.65;;;12.70;99.90;;;;;;4191984;28;20024;-72
2023/03/17 08:34:02;;;;;;;4.22;2.15;;;12.70;99.90;;;;;;4191748;28;20028;-72
2023/03/17 08:36:05;;;;;;;4.70;2.60;;;12.70;99.90;;;;;;4186148;28;20040;-72
2023/03/17 08:38:06;;;;;;;3.60;2.30;;;12.80;99.90;;;;;;4186861;28;20548;-72
2023/03/17 08:40:08;;;;;;;9.23;2.75;;;12.80;99.90;;;;;;4191940;28;20127;-72
2023/03/17 08:42:09;;;;;;;7.90;2.78;;;12.90;99.90;;;;;;4193483;28;20024;-70
2023/03/17 08:44:11;;;;;;;11.75;2.45;;;13.00;99.90;;;;;;4191775;28;20036;-71
2023/03/17 08:46:22;;;;;;;4.53;2.58;;;13.10;99.90;;;;;;4184217;28;20025;-71
2023/03/17 08:48:22;;;;;;;5.68;2.53;;;13.10;99.90;;;;;;4192711;28;20028;-72
2023/03/17 08:50:23;;;;;;;4.43;2.65;;;13.10;99.90;;;;;;4185420;28;20043;-72
2023/03/17 08:52:24;;;;;;;5.00;2.72;;;13.10;99.90;;;;;;4192170;28;20036;-73
2023/03/17 08:54:25;;;;;;;6.63;2.80;;;13.10;99.90;;;;;;4192954;28;20029;-72
2023/03/17 08:56:26;;;;;;;6.07;2.50;;;13.20;99.90;;;;;;4193168;28;20356;-72
2023/03/17 08:58:28;;;;;;;5.25;2.40;;;13.10;99.90;;;;;;4185244;28;20033;-72
2023/03/17 09:00:28;;;;;;;3.60;2.15;;;13.10;99.90;;;;;;4192510;28;20066;-72
2023/03/17 09:02:29;;;;;;;7.82;2.78;;;13.10;99.90;;;;;;4192558;28;20174;-72
2023/03/17 09:04:30;;;;;;;5.13;2.72;;;13.10;99.80;;;;;;4188859;28;20037;-72
2023/03/17 09:06:30;;;;;;;5.15;2.67;;;13.10;99.90;;;;;;4169058;28;20504;-72
2023/03/17 09:08:37;;;;;;;5.68;2.85;;;13.10;99.90;;;;;;4167657;28;20034;-72
2023/03/17 09:10:38;;;;;;;6.00;2.75;;;13.10;99.60;;;;;;4171201;28;20031;-72
2023/03/17 09:12:38;;;;;;;5.72;2.60;;;13.10;99.90;;;;;;4171758;28;20510;-72
2023/03/17 09:14:39;;;;;;;3.78;2.42;;;13.20;99.90;;;;;;4173525;28;20055;-72
2023/03/17 09:16:41;;;;;;;4.25;2.65;;;13.30;99.90;;;;;;4174733;28;20029;-71
2023/03/17 09:18:42;;;;;;;5.72;2.80;;;13.40;99.90;;;;;;4174481;28;20029;-72
2023/03/17 09:20:42;;;;;;;9.07;2.80;;;13.40;99.90;;;;;;4169551;28;20564;-72
2023/03/17 09:22:43;;;;;;;5.63;2.75;;;13.50;99.80;;;;;;4169810;28;20056;-71
2023/03/17 09:24:45;;;;;;;6.65;2.45;;;13.60;99.90;;;;;;4171075;28;20116;-72
2023/03/17 09:26:46;;;;;;;6.80;2.53;;;13.60;99.70;;;;;;4168457;28;20040;-72
2023/03/17 09:28:46;;;;;;;5.53;2.70;;;13.70;99.90;;;;;;4169208;28;20029;-72
2023/03/17 09:30:47;;;;;;;5.80;2.58;;;13.70;99.40;;;;;;4168921;28;20102;-71
2023/03/17 09:32:48;;;;;;;5.03;2.40;;;13.80;99.70;;;;;;4176284;28;20135;-73
2023/03/17 09:34:48;;;;;;;5.53;2.88;;;13.70;98.80;;;;;;4171887;28;20091;-73
2023/03/17 09:36:49;;;;;;;7.03;2.58;;;13.80;98.90;;;;;;4172185;28;20128;-72
2023/03/17 09:38:50;;;;;;;4.03;2.47;;;13.90;99.30;;;;;;4168715;28;20431;-72
2023/03/17 09:41:18;;;;;;;7.63;2.88;;;14.00;99.10;;;;;;4170787;28;20032;-71
2023/03/17 09:43:27;;;;;;;4.65;2.50;;;14.00;99.20;;;;;;4168270;28;20067;-72
2023/03/17 09:45:36;;;;;;;7.03;3.05;;;14.10;98.60;;;;;;4169177;28;20038;-72
2023/03/17 09:47:52;;;;;;;5.45;2.55;;;14.20;98.80;;;;;;4171235;28;20025;-73
2023/03/17 09:50:03;;;;;;;4.75;2.58;;;14.20;98.50;;;;;;4171270;28;20484;-73
2023/03/17 09:52:04;;;;;;;4.22;2.35;;;14.30;98.20;;;;;;4165080;28;20060;-73
2023/03/17 09:54:18;;;;;;;6.55;2.60;;;14.30;98.40;;;;;;4171672;28;20108;-73
2023/03/17 09:56:19;;;;;;;4.18;2.50;;;14.40;98.50;;;;;;4174798;28;20472;-73
2023/03/17 09:58:32;;;;;;;7.50;2.55;;;14.50;98.70;;;;;;4171721;28;20070;-72
2023/03/17 10:00:33;;;;;;;5.60;2.95;;;14.50;97.80;;;;;;4173590;28;20488;-72
2023/03/17 10:02:38;;;;;;;10.05;3.15;;;14.50;98.00;;;;;;4176402;28;20528;-73
2023/03/17 10:04:41;;;;;;;5.00;2.35;;;14.60;98.20;;;;;;4174317;28;20025;-72
2023/03/17 10:06:45;;;;;;;7.05;2.95;;;14.60;97.80;;;;;;4182354;28;20075;-72
2023/03/17 10:08:53;;;;;;;7.05;2.60;;;14.70;98.90;;;;;;4190407;28;20055;-72
2023/03/17 10:11:25;;;;;;;4.32;2.38;;;14.80;98.00;;;;;;4190294;28;20025;-72
2023/03/17 10:14:02;;;;;;;5.35;2.88;;;14.90;98.50;;;;;;4173339;28;20044;-73
2023/03/17 10:16:10;;;;;;;4.10;2.40;;;14.90;97.50;;;;;;4189260;28;20028;-72
2023/03/17 10:18:14;;;;;;;5.03;2.72;;;14.90;97.90;;;;;;4192177;28;20082;-71
2023/03/17 10:20:20;;;;;;;4.80;2.50;;;15.00;98.10;;;;;;4193360;28;20388;-73
2023/03/17 10:22:49;;;;;;;4.78;2.17;;;15.10;98.30;;;;;;4189626;28;20043;-73
2023/03/17 10:24:53;;;;;;;7.13;2.85;;;15.20;97.80;;;;;;4190809;28;20426;-73
2023/03/17 10:26:56;;;;;;;5.28;2.45;;;15.20;97.40;;;;;;4190167;28;20415;-73
2023/03/17 10:28:58;;;;;;;6.38;2.72;;;15.20;97.50;;;;;;4175546;28;20056;-72
2023/03/17 10:31:12;;;;;;;5.95;2.47;;;15.20;97.30;;;;;;4188564;28;20028;-72
2023/03/17 10:33:12;;;;;;;5.70;2.72;;;15.30;97.10;;;;;;4191990;28;20063;-72
2023/03/17 10:35:15;;;;;;;9.50;3.25;;;15.40;97.00;;;;;;4191752;28;20056;-73
2023/03/17 10:37:17;;;;;;;;;;;15.50;96.30;;;;;;4183040;28;20533;-73
2023/03/17 10:39:20;;;;;;;5.93;2.72;;;15.60;97.20;;;;;;4192558;28;19912;-72
2023/03/17 10:41:21;;;;;;;6.25;2.78;;;15.60;96.70;;;;;;4190400;28;20035;-72
2023/03/17 10:43:27;;;;;;;6.88;2.97;;;15.60;96.00;;;;;;4191790;28;20037;-73